Time;durP1;ratioP1;P1;durP2;ratioP2;P2;SDS_P1;SDS_P2;PMS_P1;PMS_P2;Temp;Humidity;BMP_temperature;BMP_pressure;BME280_temperature;BME280_humidity;BME280_pressure;Samples;Min_cycle;Max_cycle;Signal;HPM_P1;HPM_P2
2022/04/30 00:00:32;;;;;;;17.43;9.97;;;;;;;13.60;69.04;95269.28;5004306;28;20176;-83
2022/04/30 00:02:59;;;;;;;17.50;8.97;;;;;;;13.57;68.88;95265.28;5027602;28;20186;-83
2022/04/30 00:05:25;;;;;;;14.00;7.80;;;;;;;13.54;69.30;95272.81;5029043;28;20215;-83
2022/04/30 00:07:51;;;;;;;12.57;7.43;;;;;;;13.49;69.75;95264.75;5024282;28;20249;-81
2022/04/30 00:10:17;;;;;;;16.27;8.80;;;;;;;13.42;69.71;95267.44;5005856;28;20717;-81
2022/04/30 00:12:42;;;;;;;12.07;6.87;;;;;;;13.33;69.46;95257.34;5023117;28;20179;-81
2022/04/30 00:15:09;;;;;;;13.00;7.87;;;;;;;13.38;69.71;95268.09;5022320;28;20192;-81
2022/04/30 00:17:35;;;;;;;12.77;6.87;;;;;;;13.14;69.94;95225.63;5023466;28;20192;-81
2022/04/30 00:20:03;;;;;;;16.73;8.60;;;;;;;13.30;69.76;95261.25;5026423;28;20179;-80
2022/04/30 00:22:29;;;;;;;12.20;6.87;;;;;;;13.14;69.73;95238.81;5025058;28;20172;-80
2022/04/30 00:24:54;;;;;;;12.17;6.83;;;;;;;13.27;70.11;95266.16;5022109;28;20270;-80
2022/04/30 00:27:20;;;;;;;12.87;7.47;;;;;;;13.12;70.26;95248.78;5023731;28;20252;-80
2022/04/30 00:29:46;;;;;;;15.27;6.90;;;;;;;13.07;70.18;95245.94;5027279;28;20207;-81
2022/04/30 00:32:12;;;;;;;10.43;6.57;;;;;;;13.18;69.94;95266.44;5027615;28;20191;-81
2022/04/30 00:34:38;;;;;;;19.73;8.87;;;;;;;13.17;69.75;95272.75;5021011;28;20653;-81
2022/04/30 00:37:03;;;;;;;14.87;7.17;;;;;;;13.16;70.05;95268.47;5027498;28;20263;-81
2022/04/30 00:39:32;;;;;;;14.90;7.20;;;;;;;13.16;69.89;95268.47;5021320;28;20188;-81
2022/04/30 00:41:58;;;;;;;23.80;8.33;;;;;;;13.07;70.04;95261.81;5021698;28;20178;-81
2022/04/30 00:44:25;;;;;;;13.90;7.37;;;;;;;13.08;70.27;95267.91;5020912;28;20181;-81
2022/04/30 00:46:50;;;;;;;13.10;7.47;;;;;;;13.06;70.12;95270.75;5030012;28;20241;-81
2022/04/30 00:49:16;;;;;;;12.43;6.47;;;;;;;13.00;70.48;95260.25;5027487;28;22177;-81
2022/04/30 00:51:46;;;;;;;14.87;6.33;;;;;;;12.92;70.44;95248.13;5022975;28;20176;-82
2022/04/30 00:54:13;;;;;;;13.60;6.53;;;;;;;12.92;70.55;95242.03;5024979;28;20199;-82
2022/04/30 00:56:45;;;;;;;6.93;5.03;;;;;;;12.92;70.10;95234.91;5026318;28;20222;-82
2022/04/30 00:59:17;;;;;;;8.00;5.20;;;;;;;12.97;70.28;95252.78;5020621;28;20645;-82
2022/04/30 01:01:43;;;;;;;8.97;5.33;;;;;;;13.02;70.52;95260.84;5026995;28;20184;-81
2022/04/30 01:04:09;;;;;;;8.20;4.90;;;;;;;12.82;69.69;95229.28;5024438;28;20175;-82
2022/04/30 01:06:46;;;;;;;9.17;5.73;;;;;;;12.93;69.56;95251.56;5027091;28;20241;-82
2022/04/30 01:09:12;;;;;;;8.33;5.80;;;;;;;12.84;69.82;95246.56;5021207;28;20223;-81
2022/04/30 01:11:37;;;;;;;7.07;4.87;;;;;;;12.88;69.85;95254.88;5019331;28;20176;-82
2022/04/30 01:14:04;;;;;;;7.67;5.37;;;;;;;12.79;70.02;95256.97;5025092;28;20180;-82
2022/04/30 01:16:30;;;;;;;6.93;5.17;;;;;;;12.53;70.83;95245.75;5022812;28;20171;-82
2022/04/30 01:18:56;;;;;;;7.83;5.20;;;;;;;12.43;71.65;95248.88;5027102;28;20199;-82
2022/04/30 01:21:24;;;;;;;7.53;5.00;;;;;;;12.39;71.92;95248.47;5023791;28;20218;-82
2022/04/30 01:23:50;;;;;;;9.87;5.97;;;;;;;12.33;72.37;95248.50;5023965;28;20275;-82
2022/04/30 01:26:20;;;;;;;43.37;7.07;;;;;;;12.25;72.70;95236.38;5024198;28;20203;-82
2022/04/30 01:28:46;;;;;;;11.13;6.17;;;;;;;11.99;72.94;95207.47;5024831;28;20568;-81
2022/04/30 01:39:30;;;;;;;62.60;14.07;;;;;;;12.07;73.51;95239.72;5023091;28;20190;-81
2022/04/30 01:42:03;;;;;;;50.00;7.23;;;;;;;12.13;73.18;95243.31;5022680;28;20262;-81
2022/04/30 01:44:29;;;;;;;40.37;7.20;;;;;;;12.06;73.42;95240.72;5010415;28;20571;-81
2022/04/30 01:46:55;;;;;;;53.47;7.90;;;;;;;11.91;73.59;95224.38;5030364;28;20175;-81
2022/04/30 01:49:20;;;;;;;55.37;10.17;;;;;;;11.98;73.77;95240.16;5034086;28;20179;-81
2022/04/30 01:51:50;;;;;;;58.13;10.47;;;;;;;12.03;73.67;95245.59;5031547;28;20180;-81
2022/04/30 01:54:16;;;;;;;60.87;12.00;;;;;;;11.89;73.92;95238.78;5029304;28;20594;-81
2022/04/30 01:56:41;;;;;;;66.03;16.20;;;;;;;11.84;74.44;95241.25;5026548;28;20276;-81
2022/04/30 01:59:07;;;;;;;429.47;153.30;;;;;;;11.48;74.50;95189.00;5030396;28;20184;-80
2022/04/30 02:01:33;;;;;;;1999.90;999.90;;;;;;;11.78;74.59;95236.78;5027641;28;20541;-80
2022/04/30 02:03:59;;;;;;;1999.90;999.90;;;;;;;11.52;74.99;95201.53;5022698;28;20179;-80
2022/04/30 02:06:25;;;;;;;1999.90;340.80;;;;;;;11.73;75.32;95240.84;5027636;28;20180;-81
2022/04/30 02:08:51;;;;;;;1999.90;646.40;;;;;;;11.60;75.39;95216.31;5028569;28;20736;-81
2022/04/30 02:11:16;;;;;;;1999.90;710.07;;;;;;;11.69;75.27;95246.72;5027039;28;20164;-82
2022/04/30 02:13:52;;;;;;;1089.10;201.27;;;;;;;11.62;75.49;95241.47;5025691;28;20210;-82
2022/04/30 02:16:23;;;;;;;457.03;94.37;;;;;;;11.53;75.82;95241.91;5027540;28;20200;-82
2022/04/30 02:18:50;;;;;;;359.23;56.33;;;;;;;11.45;76.19;95229.75;5022463;28;20571;-82
2022/04/30 02:21:21;;;;;;;109.30;44.17;;;;;;;11.31;76.73;95236.09;5008828;28;20668;-82
2022/04/30 02:23:48;;;;;;;32.33;13.93;;;;;;;11.22;77.77;95246.03;5022717;28;20212;-82
2022/04/30 02:26:16;;;;;;;24.30;11.77;;;;;;;11.23;77.84;95241.56;5025602;28;20269;-82
2022/04/30 02:28:42;;;;;;;26.80;12.37;;;;;;;10.96;77.71;95188.09;5028776;28;20334;-81
2022/04/30 02:31:18;;;;;;;19.17;9.63;;;;;;;11.32;77.48;95237.72;5027414;28;20181;-81
2022/04/30 02:33:43;;;;;;;19.93;10.77;;;;;;;11.34;77.76;95241.72;5024186;28;20183;-81
2022/04/30 02:36:09;;;;;;;17.70;9.13;;;;;;;11.35;77.58;95237.28;5028041;28;20192;-82
2022/04/30 02:38:36;;;;;;;22.63;8.93;;;;;;;11.26;77.21;95220.06;5023843;28;20183;-81
2022/04/30 02:41:01;;;;;;;19.47;9.47;;;;;;;11.34;77.41;95239.09;5026686;28;20164;-82
2022/04/30 02:43:28;;;;;;;20.67;8.53;;;;;;;11.20;77.80;95226.97;5028712;28;20191;-82
2022/04/30 02:45:53;;;;;;;16.93;8.60;;;;;;;11.13;78.44;95246.44;5029139;28;20912;-82
2022/04/30 02:48:19;;;;;;;16.47;8.27;;;;;;;11.13;78.52;95231.44;5025522;28;20195;-82
2022/04/30 02:50:44;;;;;;;20.50;10.53;;;;;;;11.14;78.45;95233.06;5022938;28;20188;-82
2022/04/30 02:53:10;;;;;;;17.77;9.90;;;;;;;11.00;78.99;95205.09;5024567;28;20182;-82
2022/04/30 02:55:36;;;;;;;18.63;9.70;;;;;;;10.91;78.79;95207.13;5027959;28;20213;-83
2022/04/30 03:00:49;;;;;;;17.43;8.93;;;;;;;11.02;78.82;95236.50;5026813;28;20219;-82
2022/04/30 03:03:16;;;;;;;18.30;9.07;;;;;;;11.01;78.91;95233.06;5027395;28;20188;-82
2022/04/30 03:05:43;;;;;;;14.27;9.07;;;;;;;11.02;78.92;95231.25;5026094;28;20180;-82
2022/04/30 03:08:18;;;;;;;21.13;11.07;;;;;;;10.65;79.57;95199.25;5008509;28;20259;-82
2022/04/30 03:10:44;;;;;;;17.13;9.53;;;;;;;10.72;80.63;95217.69;5022423;28;20649;-83
2022/04/30 03:13:13;;;;;;;18.43;10.40;;;;;;;10.71;80.20;95219.50;5028832;28;20242;-83
2022/04/30 03:15:40;;;;;;;20.60;10.63;;;;;;;10.68;80.42;95213.84;5021923;28;21058;-82
2022/04/30 03:23:38;;;;;;;17.60;10.07;;;;;;;10.53;79.83;95196.44;5023448;28;20186;-82
2022/04/30 03:26:05;;;;;;;19.47;10.67;;;;;;;10.66;79.60;95216.66;5025249;28;20171;-82
2022/04/30 03:28:32;;;;;;;19.40;10.30;;;;;;;10.55;79.96;95212.03;5029960;28;20186;-82
2022/04/30 03:30:58;;;;;;;20.97;9.53;;;;;;;10.38;80.38;95201.03;5025700;28;20194;-83
2022/04/30 03:33:23;;;;;;;19.27;10.43;;;;;;;10.49;80.79;95234.66;5025019;28;20188;-82
2022/04/30 03:35:49;;;;;;;22.33;10.90;;;;;;;10.43;81.35;95238.13;5024867;28;20199;-81
2022/04/30 03:38:14;;;;;;;19.97;11.03;;;;;;;10.45;81.27;95240.56;5024930;28;20188;-81
2022/04/30 03:40:40;;;;;;;18.47;11.17;;;;;;;10.42;81.41;95238.31;5025891;28;20183;-81
2022/04/30 03:43:06;;;;;;;29.70;11.27;;;;;;;10.43;81.21;95243.38;5025042;28;20186;-81
2022/04/30 03:45:33;;;;;;;23.47;12.67;;;;;;;10.50;81.24;95251.28;5024794;28;20256;-81
2022/04/30 03:47:59;;;;;;;27.37;11.43;;;;;;;10.47;81.18;95244.59;5016545;28;20231;-81
2022/04/30 03:50:24;;;;;;;20.07;12.00;;;;;;;10.51;81.07;95247.63;5005860;28;20195;-81
2022/04/30 03:52:49;;;;;;;19.63;12.33;;;;;;;10.37;81.21;95222.31;5026004;28;20188;-81
2022/04/30 03:55:15;;;;;;;18.13;11.03;;;;;;;10.53;81.41;95241.16;5023534;28;20196;-81
2022/04/30 03:57:41;;;;;;;22.07;10.83;;;;;;;10.35;81.18;95190.94;5023917;28;20662;-81
2022/04/30 04:00:09;;;;;;;21.87;11.83;;;;;;;10.72;80.54;95244.84;5024449;28;20184;-81
2022/04/30 04:02:36;;;;;;;18.10;11.60;;;;;;;10.72;80.59;95246.66;5021617;28;20242;-81
2022/04/30 04:05:02;;;;;;;18.03;11.30;;;;;;;10.80;80.79;95249.91;5025029;28;20246;-82
2022/04/30 04:07:29;;;;;;;19.63;11.67;;;;;;;10.91;80.28;95253.72;5020120;28;20263;-82
2022/04/30 04:09:55;;;;;;;22.37;12.07;;;;;;;11.07;79.41;95255.16;5022010;28;21993;-82
2022/04/30 04:12:20;;;;;;;23.93;13.37;;;;;;;11.08;78.87;95236.50;5025187;28;20259;-83
2022/04/30 04:17:38;;;;;;;19.73;11.67;;;;;;;11.34;77.34;95241.72;5021806;28;20282;-83
2022/04/30 04:20:04;;;;;;;19.97;11.70;;;;;;;11.55;77.60;95243.31;5024987;28;20280;-83
2022/04/30 04:22:30;;;;;;;23.33;13.17;;;;;;;11.63;76.61;95255.47;5026188;28;20640;-82
2022/04/30 04:27:40;;;;;;;21.00;11.37;;;;;;;11.54;77.19;95264.63;5025601;28;20329;-81
2022/04/30 04:30:06;;;;;;;24.83;10.73;;;;;;;11.58;76.80;95250.84;5024096;28;20267;-81
2022/04/30 04:32:31;;;;;;;16.83;10.00;;;;;;;11.53;76.92;95247.97;5023189;28;20318;-81
2022/04/30 04:34:57;;;;;;;14.27;9.63;;;;;;;11.61;76.82;95236.41;5027017;28;20220;-81
2022/04/30 04:37:22;;;;;;;17.37;9.87;;;;;;;11.87;76.70;95233.69;5021780;28;20172;-81
2022/04/30 04:39:48;;;;;;;22.17;10.13;;;;;;;12.33;76.26;95232.69;5021252;28;20187;-81
2022/04/30 04:42:14;;;;;;;26.20;10.30;;;;;;;12.89;74.59;95237.16;5021972;28;20254;-81
2022/04/30 04:44:39;;;;;;;18.80;9.67;;;;;;;13.12;71.80;95227.63;5024833;28;20693;-81
2022/04/30 04:47:05;;;;;;;17.70;8.63;;;;;;;13.48;70.76;95266.59;5019104;28;20262;-82
2022/04/30 04:49:31;;;;;;;15.87;9.30;;;;;;;13.63;70.36;95263.56;5026549;28;20569;-81
2022/04/30 04:51:57;;;;;;;15.13;9.13;;;;;;;13.59;70.15;95242.03;5025983;28;20691;-81
2022/04/30 04:54:22;;;;;;;16.10;9.27;;;;;;;13.70;70.27;95255.56;5020973;28;20172;-81
2022/04/30 04:56:48;;;;;;;14.47;9.27;;;;;;;13.78;70.38;95276.44;5017087;28;20261;-81
2022/04/30 04:59:13;;;;;;;18.20;8.80;;;;;;;13.76;70.07;95271.34;5020822;28;20180;-82
2022/04/30 05:01:42;;;;;;;1999.90;999.90;;;;;;;13.52;69.79;95224.63;5020900;28;20257;-81
2022/04/30 05:04:08;;;;;;;1999.90;999.90;;;;;;;13.77;69.58;95275.63;5020537;28;20757;-82
2022/04/30 05:06:34;;;;;;;1999.90;999.90;;;;;;;13.56;69.62;95239.03;5022271;28;20179;-82
2022/04/30 05:09:00;;;;;;;1565.83;326.20;;;;;;;13.77;69.10;95278.28;5021572;28;20724;-82
2022/04/30 05:11:26;;;;;;;1999.90;753.73;;;;;;;13.84;69.52;95283.50;5025953;28;20262;-82
2022/04/30 05:13:51;;;;;;;1999.90;999.90;;;;;;;13.53;69.84;95219.09;5023941;28;20188;-82
2022/04/30 05:16:17;;;;;;;539.27;85.00;;;;;;;13.81;69.16;95231.81;5007180;28;20214;-82
2022/04/30 05:18:42;;;;;;;1999.90;999.90;;;;;;;13.74;70.54;95262.84;5005759;28;20262;-80
2022/04/30 05:21:08;;;;;;;1490.07;254.23;;;;;;;13.66;70.57;95278.22;5021022;28;20187;-81
2022/04/30 05:23:33;;;;;;;585.63;121.27;;;;;;;13.86;69.52;95258.44;5021727;28;20215;-82
2022/04/30 05:25:59;;;;;;;298.03;36.53;;;;;;;15.12;66.08;95270.00;5025085;28;20176;-81
2022/04/30 05:28:24;;;;;;;72.33;14.63;;;;;;;15.96;62.33;95256.28;5021081;28;20245;-82
2022/04/30 05:30:50;;;;;;;60.87;11.60;;;;;;;16.56;60.00;95279.78;5024175;28;20560;-82
2022/04/30 05:33:15;;;;;;;11.87;7.50;;;;;;;17.07;57.51;95299.34;5020534;28;20176;-82
2022/04/30 05:35:41;;;;;;;20.27;9.23;;;;;;;17.25;56.42;95246.72;5022783;28;20208;-82
2022/04/30 05:38:06;;;;;;;13.77;8.52;;;;;;;18.18;54.20;95250.41;5025886;28;20180;-82
2022/04/30 05:40:32;;;;;;;13.20;8.05;;;;;;;18.99;51.56;95294.03;5026441;28;20192;-82
2022/04/30 05:42:57;;;;;;;16.67;8.55;;;;;;;19.90;49.05;95296.63;5025490;28;20182;-82
2022/04/30 05:45:23;;;;;;;13.70;8.35;;;;;;;20.18;47.59;95250.00;5024700;28;20183;-82
2022/04/30 05:47:49;;;;;;;17.60;8.77;;;;;;;20.22;47.73;95278.66;5019592;28;20184;-82
2022/04/30 05:50:14;;;;;;;50.95;28.83;;;;;;;19.98;48.55;95299.63;5024844;28;20181;-82
2022/04/30 05:52:40;;;;;;;18.63;10.55;;;;;;;20.16;48.70;95292.22;5023995;28;20267;-82
2022/04/30 05:55:06;;;;;;;17.77;8.38;;;;;;;20.37;47.86;95264.56;5016674;28;20196;-81
2022/04/30 05:57:32;;;;;;;45.10;25.95;;;;;;;21.53;47.23;95298.03;5024477;28;20172;-83
2022/04/30 05:59:58;;;;;;;20.30;11.38;;;;;;;22.17;43.97;95300.91;5021219;28;20184;-82
2022/04/30 06:02:24;;;;;;;21.23;12.60;;;;;;;21.97;44.61;95299.06;5028705;28;20275;-86
2022/04/30 06:04:50;;;;;;;20.02;10.15;;;;;;;21.61;43.56;95282.22;5008470;28;20550;-86
2022/04/30 06:07:16;;;;;;;13.88;8.70;;;;;;;21.29;45.68;95297.72;5005221;28;20184;-86
2022/04/30 06:09:42;;;;;;;9.68;7.22;;;;;;;20.22;44.81;95261.81;5021560;28;20220;-85
2022/04/30 06:12:08;;;;;;;9.52;6.65;;;;;;;19.95;47.32;95300.16;5026774;28;20255;-85
2022/04/30 06:14:34;;;;;;;13.60;6.97;;;;;;;19.46;47.67;95288.81;5006265;28;20295;-83
2022/04/30 06:17:00;;;;;;;10.93;7.30;;;;;;;18.81;48.62;95247.16;5026012;28;20215;-84
2022/04/30 06:19:26;;;;;;;9.30;6.40;;;;;;;18.91;49.37;95294.47;5019352;28;20660;-84
2022/04/30 06:21:52;;;;;;;9.65;6.65;;;;;;;18.56;49.60;95252.19;5027191;28;20255;-84
2022/04/30 06:24:18;;;;;;;10.82;7.38;;;;;;;19.28;49.35;95293.75;5029369;28;20271;-83
2022/04/30 06:26:44;;;;;;;11.27;6.65;;;;;;;19.35;49.70;95281.00;5029571;28;20650;-84
2022/04/30 06:29:10;;;;;;;14.13;8.65;;;;;;;19.58;49.20;95278.78;5030214;28;20186;-84
2022/04/30 06:31:36;;;;;;;9.45;6.70;;;;;;;20.15;47.77;95290.66;5022641;28;20225;-83
2022/04/30 06:34:01;;;;;;;9.35;6.40;;;;;;;20.87;47.34;95265.78;5029459;28;20254;-84
2022/04/30 06:36:28;;;;;;;9.30;6.15;;;;;;;21.40;44.34;95294.78;5004378;28;20287;-84
2022/04/30 06:38:53;;;;;;;10.80;6.55;;;;;;;21.42;42.91;95281.94;5028498;28;20274;-85
2022/04/30 06:41:21;;;;;;;12.60;6.45;;;;;;;21.32;43.36;95289.97;5025087;28;20262;-84
2022/04/30 06:43:47;;;;;;;14.32;7.40;;;;;;;21.14;44.27;95286.97;5026493;28;20176;-83
2022/04/30 06:46:12;;;;;;;8.70;6.40;;;;;;;20.59;43.54;95245.63;5027214;28;20183;-84
2022/04/30 06:48:37;;;;;;;17.55;7.00;;;;;;;20.37;44.68;95288.63;5024454;28;20627;-84
2022/04/30 06:51:04;;;;;;;8.20;5.78;;;;;;;19.72;45.72;95248.97;5021609;28;20189;-85
2022/04/30 06:59:09;;;;;;;12.65;6.22;;;;;;;19.67;48.07;95276.44;5028322;28;20223;-85
2022/04/30 07:01:39;;;;;;;9.70;6.40;;;;;;;19.69;47.49;95258.31;5026414;28;20715;-84
2022/04/30 07:04:06;;;;;;;10.40;6.70;;;;;;;19.39;46.73;95234.81;5008687;28;20238;-85
2022/04/30 07:06:33;;;;;;;14.75;6.70;;;;;;;19.43;47.17;95280.53;5021267;28;20306;-85
2022/04/30 07:09:00;;;;;;;11.00;5.80;;;;;;;19.30;47.25;95271.06;5024579;28;20227;-87
2022/04/30 07:11:25;;;;;;;9.60;6.82;;;;;;;18.85;47.50;95226.13;5028766;28;20175;-87
2022/04/30 07:13:51;;;;;;;16.23;7.13;;;;;;;18.64;47.82;95241.13;5027181;28;20233;-85
2022/04/30 07:16:17;;;;;;;16.25;6.65;;;;;;;18.50;48.79;95255.88;5021274;28;20284;-84
2022/04/30 07:18:42;;;;;;;9.05;6.15;;;;;;;18.35;49.55;95253.00;5025944;28;20552;-84
2022/04/30 07:21:08;;;;;;;11.25;6.53;;;;;;;18.58;49.67;95244.78;5027795;28;20923;-84
2022/04/30 07:23:33;;;;;;;10.18;5.97;;;;;;;18.97;48.29;95249.97;5027492;28;20194;-85
2022/04/30 07:25:59;;;;;;;10.82;6.88;;;;;;;19.15;47.14;95238.91;5026126;28;20546;-90
2022/04/30 07:28:26;;;;;;;9.30;6.00;;;;;;;19.34;46.64;95220.63;5013821;28;20230;-91
2022/04/30 07:30:52;;;;;;;10.25;6.55;;;;;;;19.76;45.42;95272.25;5010069;28;20592;-89
2022/04/30 07:33:18;;;;;;;11.55;6.97;;;;;;;19.88;47.79;95258.69;5005600;28;20206;-86
2022/04/30 07:35:49;;;;;;;8.50;6.03;;;;;;;20.17;46.09;95208.28;5016696;28;20259;-84
2022/04/30 07:38:15;;;;;;;7.63;6.00;;;;;;;20.75;43.32;95255.31;5024002;28;20238;-86
2022/04/30 07:40:40;;;;;;;12.10;6.78;;;;;;;21.26;43.27;95277.66;5008931;28;20187;-84
2022/04/30 07:43:05;;;;;;;9.82;6.75;;;;;;;21.12;41.62;95260.44;5006482;28;20188;-88
2022/04/30 07:45:31;;;;;;;9.35;5.93;;;;;;;20.71;42.06;95267.63;5027025;28;20262;-85
2022/04/30 07:47:57;;;;;;;9.18;5.88;;;;;;;20.47;43.92;95259.25;5018028;28;20179;-87
2022/04/30 07:50:25;;;;;;;9.50;6.18;;;;;;;20.62;44.50;95261.97;5012332;28;20194;-87
2022/04/30 07:52:50;;;;;;;8.35;5.75;;;;;;;20.69;41.67;95248.34;5023418;28;20183;-86
2022/04/30 07:55:16;;;;;;;8.45;5.88;;;;;;;20.40;43.69;95191.03;5011403;28;20638;-84
2022/04/30 07:57:41;;;;;;;9.40;5.50;;;;;;;21.07;42.53;95271.16;5024682;28;20188;-85
2022/04/30 08:00:07;;;;;;;9.40;6.30;;;;;;;21.05;42.42;95262.59;5020900;28;20184;-84
2022/04/30 08:02:33;;;;;;;9.43;4.95;;;;;;;20.12;42.13;95251.06;5022878;28;20234;-84
2022/04/30 08:05:02;;;;;;;6.80;4.85;;;;;;;20.15;42.96;95248.66;5022507;28;20176;-81
2022/04/30 08:07:28;;;;;;;7.43;5.28;;;;;;;20.04;44.42;95254.22;5023025;28;20666;-84
2022/04/30 08:09:53;;;;;;;7.63;4.78;;;;;;;20.00;40.60;95216.50;5023235;28;20219;-86
2022/04/30 08:12:19;;;;;;;7.55;4.65;;;;;;;20.12;40.71;95203.75;5026122;28;20176;-84
2022/04/30 08:14:45;;;;;;;10.77;6.45;;;;;;;19.95;42.16;95219.97;5007395;28;20647;-84
2022/04/30 08:17:13;;;;;;;12.10;6.70;;;;;;;20.45;41.96;95261.38;5026303;28;20614;-86
2022/04/30 08:19:39;;;;;;;8.18;5.97;;;;;;;19.76;42.95;95237.50;5022451;28;20176;-85
2022/04/30 08:22:04;;;;;;;7.38;5.43;;;;;;;19.71;42.99;95223.31;5025533;28;20187;-84
2022/04/30 08:24:30;;;;;;;7.88;4.95;;;;;;;20.11;42.89;95257.47;5026076;28;20191;-84
2022/04/30 08:26:56;;;;;;;7.88;5.80;;;;;;;19.57;44.64;95209.59;5027677;28;20704;-85
2022/04/30 08:29:22;;;;;;;7.55;4.68;;;;;;;19.64;45.66;95247.56;5021413;28;20704;-84
2022/04/30 08:31:48;;;;;;;7.90;5.32;;;;;;;19.94;45.02;95249.63;5024071;28;20192;-80
2022/04/30 08:34:13;;;;;;;6.75;5.13;;;;;;;20.01;44.37;95244.03;5025183;28;20180;-81
2022/04/30 08:36:39;;;;;;;5.05;4.03;;;;;;;19.71;44.91;95224.13;5021252;28;20210;-85
2022/04/30 08:39:04;;;;;;;5.47;4.30;;;;;;;19.58;45.10;95230.72;5019356;28;20266;-86
2022/04/30 08:41:30;;;;;;;9.65;4.75;;;;;;;19.49;46.42;95248.28;5021141;28;20701;-83
2022/04/30 08:43:55;;;;;;;5.40;4.50;;;;;;;19.63;46.97;95245.97;5021864;28;20646;-85
2022/04/30 08:46:21;;;;;;;7.03;4.78;;;;;;;19.35;46.06;95198.22;5024539;28;20190;-84
2022/04/30 08:48:47;;;;;;;6.57;4.55;;;;;;;19.95;46.52;95238.69;5024066;28;20663;-85
2022/04/30 08:51:15;;;;;;;6.63;4.80;;;;;;;20.12;44.74;95198.41;5024123;28;20278;-86
2022/04/30 08:53:41;;;;;;;6.18;4.25;;;;;;;20.26;45.62;95234.25;5020619;28;20200;-86
2022/04/30 08:56:07;;;;;;;6.22;4.18;;;;;;;20.24;44.75;95243.59;5025629;28;21242;-85
2022/04/30 08:58:33;;;;;;;6.60;4.72;;;;;;;19.98;46.25;95235.47;5021850;28;20183;-86
2022/04/30 09:01:02;;;;;;;5.75;4.65;;;;;;;19.68;46.22;95229.97;5024285;28;20202;-84
2022/04/30 09:03:32;;;;;;;6.38;4.70;;;;;;;19.71;46.83;95229.47;5025087;28;20589;-84
2022/04/30 09:05:59;;;;;;;5.88;4.40;;;;;;;19.73;46.21;95231.84;5022803;28;20176;-83
2022/04/30 09:08:25;;;;;;;11.80;4.63;;;;;;;19.80;45.82;95227.91;5017710;28;21091;-85
2022/04/30 09:10:50;;;;;;;5.38;4.20;;;;;;;19.48;45.84;95187.09;5019615;28;20198;-81
2022/04/30 09:13:17;;;;;;;5.70;4.38;;;;;;;19.69;45.59;95215.56;5020706;28;20196;-84
2022/04/30 09:15:45;;;;;;;5.53;3.72;;;;;;;19.77;45.44;95227.63;5023643;28;20200;-83
2022/04/30 09:18:12;;;;;;;7.57;3.67;;;;;;;19.65;45.71;95214.44;5015006;28;20238;-84
2022/04/30 09:20:48;;;;;;;5.63;3.65;;;;;;;19.72;45.07;95223.03;5018394;28;20633;-82
2022/04/30 09:23:31;;;;;;;7.05;4.30;;;;;;;19.68;45.29;95229.97;5022226;28;20186;-82
2022/04/30 09:25:58;;;;;;;4.93;4.03;;;;;;;19.80;45.36;95227.13;5024158;28;20233;-83
2022/04/30 09:28:32;;;;;;;5.35;3.88;;;;;;;19.89;44.42;95226.34;5021277;28;20278;-86
2022/04/30 09:31:18;;;;;;;5.95;3.88;;;;;;;19.87;44.50;95196.41;5000585;28;20187;-81
2022/04/30 09:33:55;;;;;;;6.60;3.80;;;;;;;20.10;45.42;95205.88;5020780;28;20172;-82
2022/04/30 09:39:17;;;;;;;5.60;3.70;;;;;;;19.77;44.28;95199.03;5019848;28;20593;-80
2022/04/30 09:41:43;;;;;;;4.63;3.38;;;;;;;20.06;44.84;95228.84;5020065;28;20188;-84
2022/04/30 09:44:12;;;;;;;5.13;3.67;;;;;;;19.77;44.38;95200.91;5022046;28;20199;-85
2022/04/30 09:46:39;;;;;;;4.18;3.15;;;;;;;19.67;44.12;95212.34;5023184;28;20164;-85
2022/04/30 09:54:37;;;;;;;3.72;2.90;;;;;;;19.13;44.22;95207.13;5027012;28;20234;-83
2022/04/30 09:57:09;;;;;;;3.88;2.90;;;;;;;19.08;44.19;95183.06;5025688;28;20232;-83
2022/04/30 09:59:37;;;;;;;4.20;2.63;;;;;;;19.14;44.17;95198.06;5026592;28;20195;-83
2022/04/30 10:02:05;;;;;;;5.18;3.60;;;;;;;19.15;43.91;95198.88;5025760;28;20175;-83
2022/04/30 10:04:32;;;;;;;2.28;2.08;;;;;;;18.97;43.14;95205.41;5022339;28;20636;-83
2022/04/30 10:07:00;;;;;;;3.22;2.58;;;;;;;18.63;43.97;95199.50;5021648;28;20267;-82
2022/04/30 10:09:51;;;;;;;6.82;3.58;;;;;;;18.58;44.73;95194.13;5020351;28;20227;-82
2022/04/30 10:12:26;;;;;;;2.40;2.20;;;;;;;18.64;44.67;95161.09;5022655;28;20207;-83
2022/04/30 10:15:36;;;;;;;4.68;3.40;;;;;;;18.70;44.57;95177.94;5020396;28;20262;-82
2022/04/30 10:18:06;;;;;;;3.35;2.75;;;;;;;18.82;44.74;95138.59;4943127;29;20187;-82
2022/04/30 10:20:35;;;;;;;3.08;2.28;;;;;;;18.84;44.08;95123.13;4942360;29;20182;-83
2022/04/30 10:23:03;;;;;;;4.32;2.30;;;;;;;19.20;43.03;95164.19;4968540;28;20196;-83
2022/04/30 10:25:34;;;;;;;6.78;2.90;;;;;;;19.06;43.07;95166.50;5026481;28;20180;-84
2022/04/30 10:28:23;;;;;;;2.60;2.20;;;;;;;19.12;42.65;95162.81;5024453;28;20196;-84
2022/04/30 10:31:06;;;;;;;2.72;2.40;;;;;;;19.18;43.04;95166.34;5018801;28;20203;-83
2022/04/30 10:33:32;;;;;;;3.05;2.40;;;;;;;19.26;42.72;95165.84;5004865;28;20678;-83
2022/04/30 10:36:11;;;;;;;5.78;3.60;;;;;;;19.41;42.34;95165.94;5024304;28;20239;-83
2022/04/30 10:38:37;;;;;;;3.95;3.17;;;;;;;19.25;41.82;95158.09;5010498;28;20571;-83
2022/04/30 10:41:04;;;;;;;4.07;2.83;;;;;;;19.12;46.73;95133.44;5023177;28;20267;-83
2022/04/30 10:43:36;;;;;;;3.85;2.53;;;;;;;19.32;44.31;95150.66;5021223;28;20180;-83
2022/04/30 10:46:23;;;;;;;2.90;2.60;;;;;;;19.45;42.49;95132.34;5026075;28;20179;-83
2022/04/30 10:48:49;;;;;;;4.03;2.58;;;;;;;19.59;43.55;95141.50;5027412;28;20191;-83
2022/04/30 10:51:30;;;;;;;4.93;3.25;;;;;;;19.85;42.37;95149.63;5027140;28;20184;-83
2022/04/30 10:53:58;;;;;;;6.07;3.38;;;;;;;19.69;44.29;95156.78;5024911;28;20199;-83
2022/04/30 10:56:27;;;;;;;10.80;2.70;;;;;;;19.05;42.81;95129.41;5022273;28;20207;-84
2022/04/30 10:58:53;;;;;;;3.88;2.78;;;;;;;19.04;43.12;95154.47;5023771;28;20183;-82
2022/04/30 11:01:20;;;;;;;3.33;2.83;;;;;;;19.03;43.85;95145.66;5027467;28;20574;-83
2022/04/30 11:03:50;;;;;;;3.38;2.63;;;;;;;19.17;43.65;95146.84;5025525;28;20218;-83
2022/04/30 11:06:30;;;;;;;2.45;2.22;;;;;;;19.33;43.13;95155.75;5022030;28;20180;-84
2022/04/30 11:09:04;;;;;;;2.80;2.50;;;;;;;19.32;44.87;95146.13;5004839;28;20235;-84
2022/04/30 11:11:30;;;;;;;3.40;2.42;;;;;;;19.16;43.50;95152.44;5028425;28;20214;-83
2022/04/30 11:13:58;;;;;;;2.72;2.42;;;;;;;18.95;43.29;95151.47;5022570;28;20184;-84
2022/04/30 11:16:32;;;;;;;3.88;2.80;;;;;;;18.56;43.48;95118.88;5005089;28;20204;-84
2022/04/30 11:19:08;;;;;;;4.85;2.80;;;;;;;18.62;43.96;95112.53;5025551;28;20641;-83
2022/04/30 11:21:35;;;;;;;3.17;2.50;;;;;;;18.81;45.41;95137.78;5023652;28;20615;-84
2022/04/30 11:24:02;;;;;;;5.18;2.35;;;;;;;18.77;43.51;95142.00;5022086;28;20180;-83
2022/04/30 11:26:29;;;;;;;2.33;1.88;;;;;;;18.74;43.26;95126.53;5025096;28;20183;-83
2022/04/30 11:28:54;;;;;;;3.83;2.47;;;;;;;18.83;43.56;95143.66;5026469;28;20191;-84
2022/04/30 11:31:20;;;;;;;2.30;2.10;;;;;;;18.69;43.45;95115.00;5023789;28;20188;-84
2022/04/30 11:33:46;;;;;;;3.28;2.10;;;;;;;18.84;44.35;95134.59;5025126;28;20188;-82
2022/04/30 11:36:12;;;;;;;2.63;2.28;;;;;;;18.82;44.49;95125.25;5024901;28;20187;-85
2022/04/30 11:38:38;;;;;;;4.53;2.80;;;;;;;18.73;43.92;95114.25;5013670;28;20271;-85
2022/04/30 11:41:10;;;;;;;2.95;2.40;;;;;;;18.84;43.55;95137.28;5023147;28;20267;-83
2022/04/30 11:43:36;;;;;;;3.58;2.00;;;;;;;18.93;43.17;95129.59;5024447;28;20218;-83
2022/04/30 11:46:02;;;;;;;2.65;2.33;;;;;;;19.05;43.45;95116.88;5028538;28;20638;-82
2022/04/30 11:48:37;;;;;;;4.53;2.53;;;;;;;19.11;43.53;95123.06;5026481;28;20179;-81
2022/04/30 11:51:04;;;;;;;4.75;2.50;;;;;;;19.10;43.83;95116.91;5025157;28;20181;-81
2022/04/30 11:53:29;;;;;;;3.83;2.42;;;;;;;19.12;44.04;95122.78;5024772;28;20180;-80
2022/04/30 11:55:55;;;;;;;5.05;2.15;;;;;;;19.00;43.99;95121.38;5025220;28;21007;-82
2022/04/30 11:58:21;;;;;;;2.85;2.38;;;;;;;18.94;43.61;95109.06;5027787;28;20201;-83
2022/04/30 12:00:51;;;;;;;2.28;1.90;;;;;;;18.99;43.15;95122.44;5027736;28;20637;-83